createdAt,value
2022-10-12T00:00:26.078Z,49.20
2022-10-12T00:03:18.431Z,49.25
2022-10-12T00:06:00.994Z,49.31
2022-10-12T00:08:33.799Z,49.27
2022-10-12T00:11:07.172Z,49.39
2022-10-12T00:13:39.380Z,49.49
2022-10-12T00:16:19.536Z,49.43
2022-10-12T00:18:54.660Z,49.51
2022-10-12T00:21:28.600Z,49.57
2022-10-12T00:24:02.107Z,49.58
2022-10-12T00:26:34.497Z,49.62
2022-10-12T00:29:06.807Z,49.74
2022-10-12T00:31:39.000Z,49.84
2022-10-12T00:34:11.617Z,49.86
2022-10-12T00:36:43.800Z,49.88
2022-10-12T00:39:16.077Z,49.94
2022-10-12T00:41:48.424Z,49.98
2022-10-12T00:44:42.989Z,50.00
2022-10-12T00:47:29.525Z,50.14
2022-10-12T00:50:08.120Z,50.40
2022-10-12T00:52:44.763Z,50.44
2022-10-12T00:55:20.356Z,50.55
2022-10-12T00:57:56.009Z,50.51
2022-10-12T01:00:28.376Z,50.55
2022-10-12T01:03:01.519Z,50.64
2022-10-12T01:05:34.147Z,50.61
2022-10-12T01:08:06.622Z,50.62
2022-10-12T01:10:38.759Z,50.59
2022-10-12T01:13:11.088Z,50.66
2022-10-12T01:15:49.528Z,50.61
2022-10-12T01:18:27.455Z,50.66
2022-10-12T01:21:12.396Z,50.82
2022-10-12T01:24:12.922Z,50.76
2022-10-12T01:27:04.657Z,50.87
2022-10-12T01:30:05.306Z,50.99
2022-10-12T01:32:54.902Z,51.17
2022-10-12T01:35:35.732Z,51.17
2022-10-12T01:38:19.143Z,51.25
2022-10-12T01:40:59.211Z,51.36
2022-10-12T01:43:39.577Z,51.41
2022-10-12T01:46:47.736Z,51.58
2022-10-12T01:49:23.728Z,51.60
2022-10-12T01:52:28.447Z,51.57
2022-10-12T01:55:25.505Z,51.63
2022-10-12T01:58:20.061Z,51.73
2022-10-12T02:01:02.295Z,51.66
2022-10-12T02:03:40.347Z,51.76
2022-10-12T02:06:17.253Z,51.74
2022-10-12T02:08:56.800Z,51.77
2022-10-12T02:11:30.083Z,51.83
2022-10-12T02:14:07.940Z,51.83
2022-10-12T02:16:44.034Z,52.02
2022-10-12T02:19:20.962Z,52.01
2022-10-12T02:21:55.898Z,52.04
2022-10-12T02:24:30.474Z,52.03
2022-10-12T02:27:04.703Z,52.20
2022-10-12T02:29:41.265Z,52.21
2022-10-12T02:32:21.211Z,52.25
2022-10-12T02:34:58.911Z,52.29
2022-10-12T02:37:38.043Z,52.32
2022-10-12T02:40:19.095Z,52.47
2022-10-12T02:43:10.011Z,52.49
2022-10-12T02:45:46.880Z,52.62
2022-10-12T02:48:23.375Z,52.66
2022-10-12T02:50:58.514Z,52.62
2022-10-12T02:53:32.815Z,52.64
2022-10-12T02:56:08.172Z,52.68
2022-10-12T02:58:40.387Z,52.71
2022-10-12T03:01:13.259Z,52.74
2022-10-12T03:03:46.027Z,52.80
2022-10-12T03:06:20.250Z,52.83
2022-10-12T03:08:53.428Z,52.91
2022-10-12T03:11:26.299Z,52.97
2022-10-12T03:13:58.917Z,53.05
2022-10-12T03:16:31.274Z,53.18
2022-10-12T03:19:04.218Z,53.30
2022-10-12T03:21:36.689Z,53.28
2022-10-12T03:24:09.025Z,53.44
2022-10-12T03:26:41.240Z,53.40
2022-10-12T03:29:13.715Z,53.35
2022-10-12T03:31:45.946Z,53.39
2022-10-12T03:34:18.122Z,53.39
2022-10-12T03:36:50.365Z,53.43
2022-10-12T03:39:22.578Z,53.39
2022-10-12T03:41:54.795Z,53.52
2022-10-12T03:44:27.081Z,53.42
2022-10-12T03:46:59.311Z,53.49
2022-10-12T03:49:31.617Z,53.45
2022-10-12T03:52:03.925Z,53.54
2022-10-12T03:54:36.140Z,53.44
2022-10-12T03:57:08.343Z,53.51
2022-10-12T03:59:40.496Z,53.47
2022-10-12T04:02:16.666Z,53.49
2022-10-12T04:04:49.396Z,53.45
2022-10-12T04:07:21.691Z,53.48
2022-10-12T04:09:53.953Z,53.50
2022-10-12T04:12:26.340Z,53.56
2022-10-12T04:14:58.572Z,53.62
2022-10-12T04:17:30.831Z,53.75
2022-10-12T04:20:03.117Z,53.79
2022-10-12T04:22:35.643Z,53.86
2022-10-12T04:25:09.071Z,53.95
2022-10-12T04:27:41.384Z,54.01
2022-10-12T04:30:15.392Z,54.07
2022-10-12T04:32:47.592Z,54.12
2022-10-12T04:35:20.020Z,54.26
2022-10-12T04:37:52.239Z,54.32
2022-10-12T04:40:24.460Z,54.33
2022-10-12T04:42:57.040Z,54.42
2022-10-12T04:45:29.376Z,54.48
2022-10-12T04:48:01.579Z,54.60
2022-10-12T04:50:33.887Z,54.58
2022-10-12T04:53:05.987Z,54.63
2022-10-12T04:55:40.107Z,54.63
2022-10-12T04:58:12.194Z,54.66
2022-10-12T05:00:44.435Z,54.75
2022-10-12T05:03:16.625Z,54.82
2022-10-12T05:05:48.979Z,54.85
2022-10-12T05:08:21.164Z,54.82
2022-10-12T05:10:53.579Z,54.84
2022-10-12T05:13:25.949Z,54.92
2022-10-12T05:15:58.257Z,54.90
2022-10-12T05:18:30.565Z,55.00
2022-10-12T05:21:02.737Z,55.05
2022-10-12T05:23:35.027Z,55.12
2022-10-12T05:26:07.351Z,55.14
2022-10-12T05:28:41.227Z,55.12
2022-10-12T05:31:13.765Z,55.17
2022-10-12T05:33:46.087Z,55.14
2022-10-12T05:36:18.371Z,55.16
2022-10-12T05:38:50.591Z,55.25
2022-10-12T05:41:22.986Z,55.18
2022-10-12T05:43:55.250Z,55.20
2022-10-12T05:46:27.488Z,55.17
2022-10-12T05:48:59.685Z,55.08
2022-10-12T05:51:31.891Z,55.16
2022-10-12T05:54:04.117Z,55.08
2022-10-12T05:56:36.327Z,55.09
2022-10-12T05:59:08.596Z,55.10
2022-10-12T06:01:41.268Z,55.03
2022-10-12T06:04:13.903Z,55.07
2022-10-12T06:06:46.385Z,55.01
2022-10-12T06:09:18.681Z,55.01
2022-10-12T06:11:50.919Z,54.96
2022-10-12T06:14:23.229Z,54.94
2022-10-12T06:16:55.432Z,54.89
2022-10-12T06:19:27.595Z,54.82
2022-10-12T06:21:59.801Z,54.79
2022-10-12T06:24:32.062Z,54.75
2022-10-12T06:27:04.820Z,54.82
2022-10-12T06:29:38.409Z,54.80
2022-10-12T06:32:10.839Z,54.81
2022-10-12T06:34:43.082Z,54.73
2022-10-12T06:37:37.251Z,54.85
2022-10-12T06:40:09.014Z,54.82
2022-10-12T06:42:41.350Z,54.71
2022-10-12T06:45:14.499Z,54.74
2022-10-12T06:47:46.878Z,54.82
2022-10-12T06:50:19.224Z,54.73
2022-10-12T06:52:51.568Z,54.73
2022-10-12T06:55:24.076Z,54.55
2022-10-12T06:57:57.873Z,54.56
2022-10-12T07:00:30.038Z,54.54
2022-10-12T07:03:02.351Z,54.48
2022-10-12T07:05:34.740Z,54.41
2022-10-12T07:08:07.139Z,54.43
2022-10-12T07:10:39.394Z,54.50
2022-10-12T07:13:11.717Z,54.48
2022-10-12T07:15:50.148Z,54.46
2022-10-12T07:18:22.418Z,54.42
2022-10-12T07:20:55.203Z,54.42
2022-10-12T07:23:27.611Z,54.49
2022-10-12T07:26:00.261Z,54.55
2022-10-12T07:28:32.525Z,54.31
2022-10-12T07:31:06.479Z,54.28
2022-10-12T07:33:39.806Z,54.36
2022-10-12T07:36:14.839Z,54.31
2022-10-12T07:38:47.312Z,54.28
2022-10-12T07:41:20.062Z,54.30
2022-10-12T07:43:57.636Z,54.11
2022-10-12T07:46:29.878Z,54.14
2022-10-12T07:49:02.814Z,54.18
2022-10-12T07:51:35.384Z,54.23
2022-10-12T07:54:08.263Z,54.10
2022-10-12T07:56:40.484Z,54.16
2022-10-12T07:59:12.770Z,54.10
2022-10-12T08:01:45.867Z,54.11
2022-10-12T08:04:18.192Z,53.94
2022-10-12T08:06:50.344Z,54.03
2022-10-12T08:09:22.491Z,53.87
2022-10-12T08:11:56.313Z,53.75
2022-10-12T08:14:28.507Z,53.74
2022-10-12T08:17:00.640Z,53.57
2022-10-12T08:19:35.437Z,53.67
2022-10-12T08:22:07.840Z,53.56
2022-10-12T08:24:40.149Z,53.49
2022-10-12T08:27:12.413Z,53.35
2022-10-12T08:29:44.609Z,53.26
2022-10-12T08:32:16.872Z,53.40
2022-10-12T08:34:49.052Z,53.44
2022-10-12T08:37:21.283Z,53.36
2022-10-12T08:39:54.042Z,53.17
2022-10-12T08:42:40.550Z,53.13
2022-10-12T08:45:36.914Z,53.08
2022-10-12T08:48:16.016Z,52.91
2022-10-12T08:50:51.904Z,52.98
2022-10-12T08:53:28.008Z,52.76
2022-10-12T08:56:01.547Z,52.79
2022-10-12T08:58:37.161Z,52.77
2022-10-12T09:01:22.733Z,52.69
2022-10-12T09:04:07.600Z,52.70
2022-10-12T09:06:47.967Z,52.57
2022-10-12T09:09:41.621Z,52.61
2022-10-12T09:12:30.632Z,52.43
2022-10-12T09:15:07.324Z,52.25
2022-10-12T09:17:44.891Z,52.31
2022-10-12T09:20:22.680Z,52.00
2022-10-12T09:22:58.380Z,51.60
2022-10-12T09:25:29.510Z,51.63
2022-10-12T09:28:19.837Z,51.45
2022-10-12T09:31:06.840Z,50.94
2022-10-12T09:33:46.285Z,50.75
2022-10-12T09:36:23.423Z,50.64
2022-10-12T09:38:56.795Z,50.60
2022-10-12T09:41:34.396Z,50.20
2022-10-12T09:44:09.248Z,50.03
2022-10-12T09:46:45.121Z,50.05
2022-10-12T09:49:17.348Z,50.00
2022-10-12T09:51:50.168Z,49.95
2022-10-12T09:54:32.457Z,49.85
2022-10-12T09:57:05.713Z,50.03
2022-10-12T09:59:40.680Z,50.02
2022-10-12T10:02:19.463Z,49.54
2022-10-12T10:04:52.766Z,49.37
2022-10-12T10:07:31.286Z,49.40
2022-10-12T10:10:19.066Z,49.38
2022-10-12T10:12:54.783Z,49.23
2022-10-12T10:15:31.564Z,49.21
2022-10-12T10:18:06.344Z,49.12
2022-10-12T10:20:42.308Z,48.71
2022-10-12T10:23:27.940Z,48.50
2022-10-12T10:26:05.669Z,48.55
2022-10-12T10:28:42.786Z,48.13
2022-10-12T10:31:25.136Z,48.03
2022-10-12T10:34:25.637Z,47.35
2022-10-12T10:36:58.594Z,47.22
2022-10-12T10:39:33.657Z,46.94
2022-10-12T10:42:19.270Z,46.66
2022-10-12T10:44:53.567Z,46.53
2022-10-12T10:47:25.952Z,46.28
2022-10-12T10:50:01.584Z,46.06
2022-10-12T10:52:36.461Z,45.62
2022-10-12T10:55:22.193Z,45.42
2022-10-12T10:58:03.353Z,44.94
2022-10-12T11:00:40.937Z,44.88
2022-10-12T11:06:07.088Z,44.06
2022-10-12T11:08:40.767Z,43.99
2022-10-12T11:11:17.628Z,44.15
2022-10-12T11:13:55.611Z,44.02
2022-10-12T11:16:33.697Z,43.70
2022-10-12T11:19:19.576Z,43.83
2022-10-12T11:21:55.918Z,43.35
2022-10-12T11:24:33.850Z,42.80
2022-10-12T11:27:11.944Z,42.83
2022-10-12T11:29:44.848Z,42.44
2022-10-12T11:32:24.069Z,42.52
2022-10-12T11:35:00.208Z,42.73
2022-10-12T11:37:37.444Z,42.60
2022-10-12T11:40:31.011Z,42.32
2022-10-12T11:43:20.980Z,41.97
2022-10-12T11:45:57.686Z,42.07
2022-10-12T11:48:35.381Z,42.02
2022-10-12T11:51:08.138Z,41.85
2022-10-12T11:53:47.640Z,41.70
2022-10-12T11:56:26.398Z,41.78
2022-10-12T11:59:03.979Z,41.72
2022-10-12T12:01:48.359Z,41.53
2022-10-12T12:04:48.496Z,41.50
2022-10-12T12:07:46.545Z,41.21
2022-10-12T12:11:00.661Z,41.21
2022-10-12T12:13:33.325Z,41.04
2022-10-12T12:16:34.516Z,41.09
2022-10-12T12:19:42.332Z,40.80
2022-10-12T12:22:29.979Z,40.70
2022-10-12T12:25:26.079Z,40.67
2022-10-12T12:28:00.724Z,40.68
2022-10-12T12:30:41.568Z,40.69
2022-10-12T12:33:42.349Z,40.72
2022-10-12T12:36:25.944Z,40.51
2022-10-12T12:38:59.043Z,40.37
2022-10-12T12:41:55.142Z,40.26
2022-10-12T12:44:42.824Z,40.22
2022-10-12T12:47:47.477Z,40.29
2022-10-12T12:50:36.065Z,40.30
2022-10-12T12:53:16.256Z,40.08
2022-10-12T12:56:04.905Z,40.23
2022-10-12T12:59:06.899Z,40.01
2022-10-12T13:02:03.367Z,40.15
2022-10-12T13:05:09.396Z,40.05
2022-10-12T13:08:04.122Z,40.08
2022-10-12T13:10:48.296Z,40.19
2022-10-12T13:13:44.779Z,39.96
2022-10-12T13:17:23.533Z,39.99
2022-10-12T13:19:25.352Z,40.09
2022-10-12T13:21:59.533Z,40.10
2022-10-12T13:24:35.727Z,39.98
2022-10-12T13:27:19.037Z,39.85
2022-10-12T13:29:55.121Z,39.63
2022-10-12T13:32:39.653Z,39.82
2022-10-12T13:35:18.453Z,39.74
2022-10-12T13:38:03.865Z,39.88
2022-10-12T13:40:39.939Z,39.79
2022-10-12T13:43:31.974Z,39.85
2022-10-12T13:46:05.500Z,39.73
2022-10-12T13:48:58.855Z,39.73
2022-10-12T13:51:32.214Z,39.65
2022-10-12T13:54:15.126Z,39.68
2022-10-12T13:56:50.594Z,39.62
2022-10-12T13:59:24.381Z,39.64
2022-10-12T14:02:00.916Z,39.70
2022-10-12T14:04:34.776Z,39.63
2022-10-12T14:07:12.973Z,39.80
2022-10-12T14:09:47.592Z,39.53
2022-10-12T14:12:25.225Z,39.72
2022-10-12T14:14:58.689Z,39.64
2022-10-12T14:17:31.061Z,39.88
2022-10-12T14:23:05.828Z,39.59
2022-10-12T14:25:39.193Z,39.67
2022-10-12T14:28:29.845Z,39.74
2022-10-12T14:31:02.082Z,39.85
2022-10-12T14:33:35.121Z,39.94
2022-10-12T14:36:25.847Z,40.00
2022-10-12T14:39:11.662Z,39.86
2022-10-12T14:41:52.619Z,39.95
2022-10-12T14:44:26.950Z,39.78
2022-10-12T14:47:06.048Z,39.72
2022-10-12T14:49:42.037Z,39.99
2022-10-12T14:52:21.768Z,40.01
2022-10-12T14:57:34.248Z,40.05
2022-10-12T15:00:07.596Z,40.24
2022-10-12T15:02:42.789Z,40.25
2022-10-12T15:05:16.354Z,40.30
2022-10-12T15:07:49.004Z,40.38
2022-10-12T15:10:23.133Z,40.23
2022-10-12T15:12:55.915Z,40.43
2022-10-12T15:15:35.044Z,40.39
2022-10-12T15:18:07.637Z,40.53
2022-10-12T15:20:42.398Z,40.61
2022-10-12T15:23:17.796Z,40.70
2022-10-12T15:25:53.343Z,40.74
2022-10-12T15:28:24.246Z,40.74
2022-10-12T15:31:16.621Z,40.79
2022-10-12T15:33:49.809Z,40.86
2022-10-12T15:36:21.948Z,41.22
2022-10-12T15:38:54.136Z,40.94
2022-10-12T15:41:27.786Z,40.79
2022-10-12T15:44:00.232Z,40.96
2022-10-12T15:46:32.436Z,41.07
2022-10-12T15:49:04.603Z,41.07
2022-10-12T15:51:40.707Z,41.01
2022-10-12T15:54:14.512Z,41.25
2022-10-12T15:56:47.398Z,41.41
2022-10-12T15:59:19.623Z,41.23
2022-10-12T16:01:51.835Z,41.37
2022-10-12T16:04:24.068Z,41.43
2022-10-12T16:06:56.416Z,41.52
2022-10-12T16:09:28.737Z,41.35
2022-10-12T16:12:02.606Z,41.62
2022-10-12T16:14:34.884Z,41.80
2022-10-12T16:17:07.217Z,41.66
2022-10-12T16:19:39.456Z,41.84
2022-10-12T16:22:12.101Z,41.45
2022-10-12T16:24:44.345Z,41.52
2022-10-12T16:27:16.936Z,41.49
2022-10-12T16:29:49.289Z,41.62
2022-10-12T16:32:21.513Z,41.74
2022-10-12T16:34:53.732Z,41.86
2022-10-12T16:37:25.922Z,42.08
2022-10-12T16:39:58.246Z,41.91
2022-10-12T16:42:30.568Z,42.03
2022-10-12T16:45:02.888Z,42.35
2022-10-12T16:47:38.849Z,42.29
2022-10-12T16:50:15.641Z,42.58
2022-10-12T16:52:48.589Z,42.77
2022-10-12T16:55:21.684Z,42.70
2022-10-12T16:57:53.896Z,42.74
2022-10-12T17:00:26.223Z,42.98
2022-10-12T17:02:58.390Z,42.98
2022-10-12T17:05:30.655Z,43.16
2022-10-12T17:08:03.168Z,43.32
2022-10-12T17:10:35.142Z,43.35
2022-10-12T17:13:07.379Z,43.41
2022-10-12T17:15:44.088Z,43.49
2022-10-12T17:18:16.415Z,43.66
2022-10-12T17:20:52.103Z,43.68
2022-10-12T17:23:25.212Z,43.71
2022-10-12T17:26:02.815Z,44.01
2022-10-12T17:28:37.745Z,44.14
2022-10-12T17:31:11.810Z,44.16
2022-10-12T17:33:44.951Z,44.20
2022-10-12T17:36:17.472Z,44.26
2022-10-12T17:38:49.755Z,44.45
2022-10-12T17:41:22.067Z,44.57
2022-10-12T17:43:54.601Z,44.58
2022-10-12T17:46:26.914Z,44.76
2022-10-12T17:49:00.285Z,44.90
2022-10-12T17:51:32.675Z,45.00
2022-10-12T17:54:05.068Z,45.21
2022-10-12T17:56:37.451Z,45.27
2022-10-12T17:59:10.387Z,45.36
2022-10-12T18:01:42.743Z,45.43
2022-10-12T18:04:15.836Z,45.53
2022-10-12T18:06:48.184Z,45.63
2022-10-12T18:09:21.665Z,45.63
2022-10-12T18:11:54.529Z,45.81
2022-10-12T18:14:26.982Z,45.95
2022-10-12T18:16:59.163Z,46.02
2022-10-12T18:19:32.635Z,46.05
2022-10-12T18:22:04.894Z,46.22
2022-10-12T18:24:37.257Z,46.29
2022-10-12T18:27:09.811Z,46.45
2022-10-12T18:29:42.029Z,46.40
2022-10-12T18:32:14.353Z,46.68
2022-10-12T18:34:46.595Z,46.74
2022-10-12T18:37:18.796Z,46.82
2022-10-12T18:39:51.071Z,46.98
2022-10-12T18:42:23.373Z,47.09
2022-10-12T18:44:55.637Z,47.16
2022-10-12T18:47:30.154Z,47.24
2022-10-12T18:50:02.414Z,47.33
2022-10-12T18:52:35.209Z,47.45
2022-10-12T18:55:08.415Z,47.56
2022-10-12T18:57:40.880Z,47.58
2022-10-12T19:00:15.553Z,47.70
2022-10-12T19:02:47.745Z,47.68
2022-10-12T19:05:20.516Z,47.81
2022-10-12T19:07:52.984Z,47.91
2022-10-12T19:10:25.281Z,47.91
2022-10-12T19:12:58.783Z,47.98
2022-10-12T19:15:32.417Z,48.08
2022-10-12T19:18:04.742Z,48.17
2022-10-12T19:20:38.926Z,48.32
2022-10-12T19:23:11.136Z,48.40
2022-10-12T19:25:43.375Z,48.54
2022-10-12T19:28:15.618Z,48.60
2022-10-12T19:30:47.969Z,48.67
2022-10-12T19:33:20.141Z,48.86
2022-10-12T19:35:52.451Z,48.85
2022-10-12T19:38:24.677Z,49.02
2022-10-12T19:40:56.967Z,49.01
2022-10-12T19:43:29.460Z,49.11
2022-10-12T19:46:05.532Z,49.21
2022-10-12T19:48:38.748Z,49.31
2022-10-12T19:51:13.652Z,49.40
2022-10-12T19:53:45.925Z,49.56
2022-10-12T19:56:21.017Z,49.69
2022-10-12T19:58:55.686Z,49.82
2022-10-12T20:01:29.857Z,49.99
2022-10-12T20:04:02.415Z,50.16
2022-10-12T20:06:34.678Z,50.26
2022-10-12T20:09:08.243Z,50.49
2022-10-12T20:11:41.492Z,50.68
2022-10-12T20:14:13.992Z,50.73
2022-10-12T20:16:46.208Z,50.87
2022-10-12T20:19:18.424Z,50.99
2022-10-12T20:21:50.730Z,51.20
2022-10-12T20:24:25.304Z,51.27
2022-10-12T20:26:57.571Z,51.38
2022-10-12T20:29:29.729Z,51.50
2022-10-12T20:32:01.910Z,51.57
2022-10-12T20:34:34.296Z,51.75
2022-10-12T20:37:06.622Z,51.79
2022-10-12T20:39:38.957Z,51.92
2022-10-12T20:42:12.142Z,52.06
2022-10-12T20:44:44.535Z,52.26
2022-10-12T20:47:16.772Z,52.27
2022-10-12T20:49:49.960Z,52.42
2022-10-12T20:52:22.185Z,52.67
2022-10-12T20:54:54.991Z,52.67
2022-10-12T20:57:27.423Z,52.71
2022-10-12T20:59:59.807Z,52.86
2022-10-12T21:02:33.546Z,52.97
2022-10-12T21:05:05.859Z,53.06
2022-10-12T21:07:38.480Z,53.14
2022-10-12T21:10:12.187Z,53.19
2022-10-12T21:12:44.368Z,53.37
2022-10-12T21:15:16.645Z,53.51
2022-10-12T21:17:48.929Z,53.64
2022-10-12T21:20:21.275Z,53.71
2022-10-12T21:22:53.595Z,53.76
2022-10-12T21:25:25.768Z,53.86
2022-10-12T21:27:58.126Z,53.93
2022-10-12T21:30:30.354Z,54.09
2022-10-12T21:33:02.587Z,54.15
2022-10-12T21:35:34.965Z,54.37
2022-10-12T21:38:07.318Z,54.29
2022-10-12T21:40:39.957Z,54.52
2022-10-12T21:43:12.247Z,54.55
2022-10-12T21:45:44.455Z,54.53
2022-10-12T21:48:16.636Z,54.69
2022-10-12T21:50:48.930Z,54.84
2022-10-12T21:53:21.184Z,54.88
2022-10-12T21:55:53.429Z,54.98
2022-10-12T21:58:25.729Z,55.10
2022-10-12T22:01:07.083Z,55.07
2022-10-12T22:03:39.532Z,55.21
2022-10-12T22:06:15.628Z,55.24
2022-10-12T22:08:50.989Z,55.48
2022-10-12T22:11:24.719Z,55.50
2022-10-12T22:14:01.975Z,55.68
2022-10-12T22:16:34.839Z,55.67
2022-10-12T22:19:09.395Z,55.80
2022-10-12T22:21:41.748Z,55.68
2022-10-12T22:24:13.958Z,55.73
2022-10-12T22:26:46.263Z,55.72
2022-10-12T22:29:18.455Z,55.78
2022-10-12T22:31:50.891Z,55.76
2022-10-12T22:34:23.135Z,55.95
2022-10-12T22:36:55.336Z,56.01
2022-10-12T22:39:27.837Z,56.13
2022-10-12T22:42:00.133Z,56.04
2022-10-12T22:44:32.457Z,56.14
2022-10-12T22:47:04.712Z,56.15
2022-10-12T22:49:37.020Z,56.21
2022-10-12T22:52:09.468Z,56.18
2022-10-12T22:54:41.769Z,56.37
2022-10-12T22:57:14.070Z,56.28
2022-10-12T22:59:46.240Z,56.17
2022-10-12T23:02:18.900Z,56.38
2022-10-12T23:04:51.783Z,56.33
2022-10-12T23:07:24.094Z,56.34
2022-10-12T23:09:56.812Z,56.38
2022-10-12T23:12:28.957Z,56.20
2022-10-12T23:15:01.196Z,56.40
2022-10-12T23:17:33.560Z,56.58
2022-10-12T23:20:06.278Z,56.66
2022-10-12T23:22:38.485Z,56.61
2022-10-12T23:25:11.187Z,56.74
2022-10-12T23:27:43.398Z,56.83
2022-10-12T23:30:15.868Z,56.92
2022-10-12T23:32:48.188Z,56.93
2022-10-12T23:35:20.543Z,56.92
2022-10-12T23:37:52.736Z,57.12
2022-10-12T23:40:24.909Z,57.01
2022-10-12T23:42:57.188Z,57.16
2022-10-12T23:45:29.352Z,57.17
2022-10-12T23:48:01.661Z,57.26
2022-10-12T23:50:33.980Z,57.19
2022-10-12T23:53:06.348Z,57.34
2022-10-12T23:55:38.994Z,57.36
2022-10-12T23:58:11.732Z,57.15
